This is the latest recevied weather packets stored in our database for station/object K6MLE. If no packets are shown the sender has not sent any weather packets the latest 10 day(s).
| Time | Temp. | Humidity | Pressure | Rain* | Wind** | Luminosity | Snow |
|---|---|---|---|---|---|---|---|
| 1777179017 | 8.89° C | 87% | 1009.2 hPa | 0 mm | - | - | - |
| 1777177837 | 8.89° C | 86% | 1009.1 hPa | 0 mm | - | - | - |
| 1777177217 | 8.89° C | 88% | 1008.9 hPa | 0 mm | - | - | - |
| 1777168217 | 10° C | 86% | 1007.7 hPa | 0 mm | - | - | - |
| 1777167017 | 10° C | 85% | 1007.8 hPa | 0 mm | - | - | - |
| 1777162817 | 10.56° C | 84% | 1008.1 hPa | 0 mm | - | - | - |
| 1777162237 | 11.11° C | 83% | 1008.1 hPa | 0 mm | - | - | - |
| 1777157417 | 11.67° C | 79% | 1008.3 hPa | 0 mm | - | - | - |
| 1777151416 | 12.22° C | 77% | 1008.9 hPa | 0 mm | - | - | - |
| 1777150816 | 12.22° C | 78% | 1008.9 hPa | 0 mm | - | - | - |
| 1777150216 | 12.22° C | 77% | 1009.1 hPa | 0 mm | - | - | - |
| 1777148416 | 12.22° C | 77% | 1009 hPa | 0 mm | - | - | - |
| 1777146016 | 12.22° C | 77% | 1009.1 hPa | 0 mm | - | - | - |
| 1777143016 | 11.67° C | 79% | 1009.4 hPa | 0 mm | - | - | - |
| 1777140616 | 11.67° C | 79% | 1009.8 hPa | 0 mm | - | - | - |
| 1777139416 | 11.67° C | 80% | 1009.6 hPa | 0 mm | - | - | - |
| 1777138216 | 11.11° C | 79% | 1009.5 hPa | 0 mm | - | - | - |
| 1777135216 | 10° C | 85% | 1009.3 hPa | 0 mm | - | - | - |
| 1777126816 | 5.56° C | 95% | 1009.4 hPa | 0 mm | - | - | - |
| 1777122056 | 5° C | 94% | 1009.3 hPa | 0 mm | - | - | - |
| 1777120217 | 5° C | 94% | 1009.1 hPa | 0 mm | - | - | - |
| 1777116617 | 5° C | 94% | 1009.5 hPa | 0 mm | - | - | - |
| 1777115417 | 5.56° C | 94% | 1009.5 hPa | 0 mm | - | - | - |
| 1777112422 | 5.56° C | 94% | 1009.7 hPa | 0 mm | - | - | - |
| 1777111817 | 5.56° C | 94% | 1009.7 hPa | 0 mm | - | - | - |
* Rain latest hour (hover to see other rain measurements)
** Current wind speed in m/s (hover to see current wind gust speed)